createdAt,value
2023-03-07T00:02:55.465Z,99937.66
2023-03-07T00:06:04.873Z,99952.28
2023-03-07T00:09:10.333Z,99935.94
2023-03-07T00:12:17.356Z,99944.97
2023-03-07T00:15:25.176Z,99944.88
2023-03-07T00:18:30.235Z,99944.66
2023-03-07T00:21:35.390Z,99933.78
2023-03-07T00:24:46.790Z,99935.91
2023-03-07T00:27:53.375Z,99922.19
2023-03-07T00:31:03.932Z,99919.69
2023-03-07T00:34:08.892Z,99922.88
2023-03-07T00:37:15.186Z,99916.13
2023-03-07T00:40:20.594Z,99926.84
2023-03-07T00:43:27.300Z,99924.31
2023-03-07T00:46:32.810Z,99913.28
2023-03-07T00:49:38.337Z,99911.88
2023-03-07T00:52:44.440Z,99908.56
2023-03-07T00:55:59.452Z,99915.03
2023-03-07T00:59:06.284Z,99917.31
2023-03-07T01:02:12.590Z,99912.00
2023-03-07T01:05:17.963Z,99917.81
2023-03-07T01:08:23.951Z,99912.44
2023-03-07T01:11:30.387Z,99908.66
2023-03-07T01:14:37.004Z,99895.81
2023-03-07T01:17:42.406Z,99882.41
2023-03-07T01:20:47.784Z,99896.47
2023-03-07T01:23:53.516Z,99897.97
2023-03-07T01:26:58.993Z,99888.25
2023-03-07T01:30:05.862Z,99881.53
2023-03-07T01:33:13.375Z,99874.78
2023-03-07T01:36:21.002Z,99874.59
2023-03-07T01:39:26.626Z,99867.22
2023-03-07T01:42:36.345Z,99869.63
2023-03-07T01:46:24.274Z,99863.16
2023-03-07T01:49:35.469Z,99854.38
2023-03-07T01:52:44.755Z,99858.38
2023-03-07T01:55:49.962Z,99870.97
2023-03-07T01:58:57.674Z,99858.31
2023-03-07T02:02:07.344Z,99853.81
2023-03-07T02:05:16.809Z,99853.00
2023-03-07T02:08:26.003Z,99857.53
2023-03-07T02:11:31.293Z,99862.22
2023-03-07T02:14:36.769Z,99865.50
2023-03-07T02:17:42.480Z,99858.97
2023-03-07T02:20:57.697Z,99858.28
2023-03-07T02:24:08.392Z,99844.47
2023-03-07T02:27:16.021Z,99836.25
2023-03-07T02:30:21.367Z,99840.72
2023-03-07T02:33:30.896Z,99841.28
2023-03-07T02:36:40.386Z,99827.31
2023-03-07T02:39:57.110Z,99822.19
2023-03-07T02:43:09.712Z,99810.38
2023-03-07T02:46:17.583Z,99817.94
2023-03-07T02:49:23.079Z,99804.00
2023-03-07T02:52:29.908Z,99799.25
2023-03-07T02:55:35.800Z,99804.25
2023-03-07T02:58:44.683Z,99795.13
2023-03-07T03:01:49.998Z,99800.91
2023-03-07T03:04:55.357Z,99795.13
2023-03-07T03:08:01.802Z,99794.31
2023-03-07T03:11:09.033Z,99794.16
2023-03-07T03:14:16.784Z,99785.94
2023-03-07T03:17:24.074Z,99786.78
2023-03-07T03:20:29.382Z,99794.97
2023-03-07T03:23:34.993Z,99790.13
2023-03-07T03:26:40.207Z,99780.06
2023-03-07T03:29:47.685Z,99789.88
2023-03-07T03:32:53.306Z,99786.59
2023-03-07T03:35:58.937Z,99771.66
2023-03-07T03:39:07.234Z,99775.03
2023-03-07T03:42:12.462Z,99764.97
2023-03-07T03:45:19.764Z,99769.94
2023-03-07T03:48:25.110Z,99774.19
2023-03-07T03:51:31.093Z,99771.72
2023-03-07T03:54:36.800Z,99765.00
2023-03-07T03:57:42.076Z,99766.53
2023-03-07T04:00:48.721Z,99759.81
2023-03-07T04:03:54.959Z,99769.31
2023-03-07T04:07:00.770Z,99771.66
2023-03-07T04:10:07.193Z,99779.13
2023-03-07T04:13:15.078Z,99770.75
2023-03-07T04:16:23.753Z,99758.63
2023-03-07T04:19:29.603Z,99756.94
2023-03-07T04:22:36.431Z,99758.13
2023-03-07T04:25:41.759Z,99749.69
2023-03-07T04:28:46.692Z,99752.84
2023-03-07T04:31:57.763Z,99760.16
2023-03-07T04:35:02.931Z,99751.59
2023-03-07T04:38:08.285Z,99750.56
2023-03-07T04:41:15.830Z,99749.53
2023-03-07T04:44:22.218Z,99744.94
2023-03-07T04:47:30.229Z,99749.22
2023-03-07T04:50:35.259Z,99739.97
2023-03-07T04:53:42.448Z,99740.75
2023-03-07T04:56:48.018Z,99731.94
2023-03-07T04:59:54.342Z,99745.03
2023-03-07T05:03:02.982Z,99740.66
2023-03-07T05:06:12.857Z,99741.34
2023-03-07T05:09:18.876Z,99724.31
2023-03-07T05:12:24.132Z,99727.94
2023-03-07T05:15:30.270Z,99726.59
2023-03-07T05:18:37.238Z,99728.00
2023-03-07T05:21:44.287Z,99719.88
2023-03-07T05:24:50.861Z,99727.75
2023-03-07T05:27:56.429Z,99732.34
2023-03-07T05:31:04.135Z,99728.75
2023-03-07T05:34:13.297Z,99720.66
2023-03-07T05:37:21.934Z,99718.13
2023-03-07T05:40:27.769Z,99714.97
2023-03-07T05:43:35.180Z,99719.66
2023-03-07T05:46:41.121Z,99722.59
2023-03-07T05:49:48.397Z,99712.31
2023-03-07T05:52:55.765Z,99708.69
2023-03-07T05:56:03.457Z,99706.31
2023-03-07T05:59:12.922Z,99705.44
2023-03-07T06:02:19.007Z,99703.63
2023-03-07T06:05:25.668Z,99699.47
2023-03-07T06:08:32.926Z,99693.81
2023-03-07T06:11:40.127Z,99695.47
2023-03-07T06:14:45.050Z,99695.22
2023-03-07T06:17:50.488Z,99689.44
2023-03-07T06:20:59.205Z,99685.34
2023-03-07T06:24:08.752Z,99697.75
2023-03-07T06:27:14.118Z,99691.28
2023-03-07T06:30:19.635Z,99684.53
2023-03-07T06:33:24.723Z,99673.94
2023-03-07T06:36:31.725Z,99672.38
2023-03-07T06:39:42.482Z,99680.56
2023-03-07T06:42:48.476Z,99677.53
2023-03-07T06:45:55.127Z,99691.38
2023-03-07T06:49:02.665Z,99675.38
2023-03-07T06:52:09.611Z,99680.41
2023-03-07T06:55:15.923Z,99675.44
2023-03-07T06:58:21.104Z,99676.41
2023-03-07T07:01:26.720Z,99668.16
2023-03-07T07:04:35.294Z,99665.84
2023-03-07T07:07:42.154Z,99668.38
2023-03-07T07:10:48.490Z,99654.69
2023-03-07T07:13:54.038Z,99657.09
2023-03-07T07:16:59.758Z,99653.81
2023-03-07T07:20:06.907Z,99650.09
2023-03-07T07:23:15.583Z,99642.03
2023-03-07T07:26:22.073Z,99632.84
2023-03-07T07:29:27.693Z,99635.47
2023-03-07T07:32:33.291Z,99638.84
2023-03-07T07:35:40.352Z,99634.00
2023-03-07T07:38:46.851Z,99621.66
2023-03-07T07:41:52.809Z,99620.09
2023-03-07T07:45:00.790Z,99608.56
2023-03-07T07:48:06.551Z,99606.16
2023-03-07T07:51:12.966Z,99603.75
2023-03-07T07:54:20.823Z,99614.59
2023-03-07T07:57:28.116Z,99612.97
2023-03-07T08:00:39.493Z,99603.00
2023-03-07T08:03:45.494Z,99593.78
2023-03-07T08:06:52.252Z,99598.03
2023-03-07T08:10:01.113Z,99588.03
2023-03-07T08:13:06.241Z,99586.41
2023-03-07T08:16:15.177Z,99583.09
2023-03-07T08:19:20.839Z,99584.78
2023-03-07T08:22:26.349Z,99582.28
2023-03-07T08:25:33.379Z,99573.97
2023-03-07T08:28:38.775Z,99578.97
2023-03-07T08:31:46.315Z,99583.13
2023-03-07T08:34:52.173Z,99577.28
2023-03-07T08:37:58.249Z,99575.59
2023-03-07T08:41:06.709Z,99567.25
2023-03-07T08:44:16.186Z,99561.41
2023-03-07T08:47:21.366Z,99544.69
2023-03-07T08:50:32.189Z,99554.75
2023-03-07T08:53:38.072Z,99547.22
2023-03-07T08:56:44.865Z,99542.13
2023-03-07T08:59:50.062Z,99538.81
2023-03-07T09:02:58.466Z,99542.09
2023-03-07T09:06:08.422Z,99529.50
2023-03-07T09:09:14.061Z,99536.19
2023-03-07T09:12:20.728Z,99524.41
2023-03-07T09:15:26.024Z,99515.25
2023-03-07T09:18:31.790Z,99519.25
2023-03-07T09:21:37.057Z,99503.34
2023-03-07T09:24:42.322Z,99501.59
2023-03-07T09:27:51.623Z,99506.59
2023-03-07T09:30:57.314Z,99508.44
2023-03-07T09:34:02.634Z,99499.94
2023-03-07T09:37:07.866Z,99497.38
2023-03-07T09:40:18.707Z,99486.41
2023-03-07T09:43:28.470Z,99489.09
2023-03-07T09:47:16.091Z,99485.56
2023-03-07T09:50:26.902Z,99483.84
2023-03-07T09:53:38.103Z,99470.47
2023-03-07T09:56:46.087Z,99473.78
2023-03-07T09:59:54.666Z,99463.84
2023-03-07T10:03:09.709Z,99467.88
2023-03-07T10:06:17.807Z,99461.25
2023-03-07T10:09:25.426Z,99446.91
2023-03-07T10:12:38.566Z,99449.28
2023-03-07T10:15:50.208Z,99439.41
2023-03-07T10:19:06.802Z,99429.50
2023-03-07T10:22:18.261Z,99423.34
2023-03-07T10:25:27.501Z,99433.63
2023-03-07T10:28:34.074Z,99419.13
2023-03-07T10:31:42.876Z,99412.22
2023-03-07T10:34:48.811Z,99413.88
2023-03-07T10:37:56.592Z,99409.72
2023-03-07T10:41:04.171Z,99390.44
2023-03-07T10:44:13.233Z,99392.84
2023-03-07T10:47:23.844Z,99398.03
2023-03-07T10:50:37.753Z,99389.81
2023-03-07T10:53:43.217Z,99390.63
2023-03-07T10:57:07.061Z,99381.25
2023-03-07T11:00:18.580Z,99372.81
2023-03-07T11:03:28.308Z,99371.81
2023-03-07T11:06:40.583Z,99368.44
2023-03-07T11:09:48.870Z,99361.38
2023-03-07T11:12:54.162Z,99360.78
2023-03-07T11:16:18.072Z,99355.94
2023-03-07T11:19:34.690Z,99344.19
2023-03-07T11:22:40.089Z,99334.94
2023-03-07T11:25:45.322Z,99334.75
2023-03-07T11:28:50.664Z,99316.59
2023-03-07T11:32:05.863Z,99324.63
2023-03-07T11:35:17.010Z,99315.69
2023-03-07T11:39:06.572Z,99319.03
2023-03-07T11:42:18.623Z,99300.72
2023-03-07T11:45:32.330Z,99290.84
2023-03-07T11:48:54.422Z,99291.25
2023-03-07T11:52:09.649Z,99291.56
2023-03-07T11:55:26.140Z,99276.72
2023-03-07T11:58:42.797Z,99278.28
2023-03-07T12:01:55.563Z,99276.59
2023-03-07T12:05:20.557Z,99269.59
2023-03-07T12:08:41.939Z,99269.00
2023-03-07T12:11:59.027Z,99260.91
2023-03-07T12:15:08.706Z,99259.44
2023-03-07T12:18:36.764Z,99247.84
2023-03-07T12:22:07.505Z,99237.53
2023-03-07T12:25:24.769Z,99238.75
2023-03-07T12:28:31.363Z,99233.91
2023-03-07T12:31:39.221Z,99231.34
2023-03-07T12:34:47.441Z,99217.13
2023-03-07T12:37:56.063Z,99207.66
2023-03-07T12:41:06.097Z,99199.88
2023-03-07T12:44:17.160Z,99203.84
2023-03-07T12:47:27.417Z,99179.75
2023-03-07T12:50:38.844Z,99183.16
2023-03-07T12:53:48.237Z,99181.59
2023-03-07T12:56:58.484Z,99175.59
2023-03-07T13:00:11.369Z,99172.25
2023-03-07T13:03:23.767Z,99161.50
2023-03-07T13:06:29.097Z,99152.16
2023-03-07T13:09:34.954Z,99154.00
2023-03-07T13:12:41.883Z,99140.75
2023-03-07T13:16:03.503Z,99134.81
2023-03-07T13:19:52.729Z,99134.13
2023-03-07T13:23:01.490Z,99129.97
2023-03-07T13:26:15.410Z,99120.19
2023-03-07T13:30:01.878Z,99109.09
2023-03-07T13:33:27.122Z,99099.00
2023-03-07T13:36:34.770Z,99093.16
2023-03-07T13:39:40.814Z,99088.97
2023-03-07T13:42:47.919Z,99094.03
2023-03-07T13:45:55.183Z,99071.34
2023-03-07T13:49:02.171Z,99070.69
2023-03-07T13:52:27.205Z,99063.19
2023-03-07T13:55:40.107Z,99059.94
2023-03-07T13:58:48.870Z,99046.56
2023-03-07T14:01:57.813Z,99038.13
2023-03-07T14:05:05.006Z,99027.44
2023-03-07T14:08:13.660Z,99034.38
2023-03-07T14:11:24.291Z,99042.06
2023-03-07T14:14:42.660Z,99028.06
2023-03-07T14:17:57.181Z,99029.84
2023-03-07T14:21:09.694Z,99018.19
2023-03-07T14:24:40.816Z,99017.19
2023-03-07T14:27:58.531Z,99015.50
2023-03-07T14:31:06.555Z,99006.50
2023-03-07T14:34:23.856Z,98999.84
2023-03-07T14:37:30.005Z,98994.75
2023-03-07T14:40:42.488Z,98988.94
2023-03-07T14:43:56.585Z,98989.00
2023-03-07T14:47:08.095Z,98980.03
2023-03-07T14:50:18.904Z,98962.50
2023-03-07T14:53:26.756Z,98944.03
2023-03-07T14:56:34.160Z,98944.75
2023-03-07T14:59:39.432Z,98944.78
2023-03-07T15:02:49.221Z,98939.09
2023-03-07T15:05:58.084Z,98937.41
2023-03-07T15:09:06.487Z,98939.16
2023-03-07T15:12:15.705Z,98932.72
2023-03-07T15:15:29.958Z,98921.75
2023-03-07T15:18:36.592Z,98919.34
2023-03-07T15:21:47.272Z,98918.56
2023-03-07T15:24:53.213Z,98910.25
2023-03-07T15:28:04.421Z,98894.47
2023-03-07T15:31:14.156Z,98885.31
2023-03-07T15:34:26.281Z,98885.28
2023-03-07T15:37:37.667Z,98876.94
2023-03-07T15:40:44.277Z,98872.88
2023-03-07T15:44:05.715Z,98872.25
2023-03-07T15:47:18.057Z,98862.03
2023-03-07T15:50:25.830Z,98847.88
2023-03-07T15:53:34.094Z,98839.50
2023-03-07T15:56:41.037Z,98827.88
2023-03-07T15:59:51.654Z,98822.00
2023-03-07T16:03:22.296Z,98816.91
2023-03-07T16:06:37.045Z,98811.19
2023-03-07T16:09:44.634Z,98807.91
2023-03-07T16:12:51.443Z,98805.59
2023-03-07T16:16:09.438Z,98802.13
2023-03-07T16:19:15.575Z,98791.34
2023-03-07T16:22:22.001Z,98783.03
2023-03-07T16:25:32.114Z,98787.22
2023-03-07T16:28:38.125Z,98782.25
2023-03-07T16:31:43.939Z,98780.53
2023-03-07T16:34:49.996Z,98766.34
2023-03-07T16:37:56.201Z,98761.28
2023-03-07T16:41:06.304Z,98764.50
2023-03-07T16:44:17.202Z,98758.69
2023-03-07T16:47:22.492Z,98742.88
2023-03-07T16:50:29.926Z,98738.66
2023-03-07T16:53:35.161Z,98723.56
2023-03-07T16:56:44.989Z,98725.28
2023-03-07T16:59:50.366Z,98721.19
2023-03-07T17:02:56.848Z,98709.44
2023-03-07T17:06:02.434Z,98714.63
2023-03-07T17:09:09.578Z,98701.31
2023-03-07T17:12:16.781Z,98705.56
2023-03-07T17:15:26.775Z,98697.09
2023-03-07T17:18:34.009Z,98670.38
2023-03-07T17:21:41.183Z,98679.53
2023-03-07T17:24:46.451Z,98672.00
2023-03-07T17:27:55.336Z,98661.16
2023-03-07T17:31:01.250Z,98661.22
2023-03-07T17:34:06.352Z,98660.53
2023-03-07T17:37:14.561Z,98653.66
2023-03-07T17:40:20.437Z,98646.22
2023-03-07T17:43:27.385Z,98640.38
2023-03-07T17:46:32.894Z,98627.81
2023-03-07T17:49:40.153Z,98622.69
2023-03-07T17:52:46.133Z,98612.75
2023-03-07T17:55:51.877Z,98613.63
2023-03-07T18:02:24.948Z,98601.03
2023-03-07T18:05:30.782Z,98596.03
2023-03-07T18:08:36.637Z,98589.94
2023-03-07T18:11:43.557Z,98580.66
2023-03-07T18:14:50.385Z,98579.78
2023-03-07T18:17:56.136Z,98568.75
2023-03-07T18:21:01.689Z,98563.69
2023-03-07T18:24:19.647Z,98566.41
2023-03-07T18:27:26.712Z,98567.91
2023-03-07T18:30:35.128Z,98561.94
2023-03-07T18:33:41.528Z,98551.81
2023-03-07T18:36:48.138Z,98545.94
2023-03-07T18:39:54.031Z,98543.41
2023-03-07T18:43:02.469Z,98536.69
2023-03-07T18:46:11.685Z,98540.03
2023-03-07T18:49:18.328Z,98532.78
2023-03-07T18:52:23.733Z,98521.94
2023-03-07T18:55:33.184Z,98513.50
2023-03-07T18:58:39.009Z,98520.19
2023-03-07T19:01:50.356Z,98515.00
2023-03-07T19:04:55.942Z,98513.28
2023-03-07T19:08:01.391Z,98501.78
2023-03-07T19:11:08.976Z,98512.13
2023-03-07T19:14:15.474Z,98487.84
2023-03-07T19:17:23.151Z,98486.84
2023-03-07T19:20:29.054Z,98486.91
2023-03-07T19:23:34.987Z,98480.22
2023-03-07T19:26:41.733Z,98481.13
2023-03-07T19:29:47.620Z,98462.59
2023-03-07T19:32:54.191Z,98454.25
2023-03-07T19:36:08.022Z,98444.22
2023-03-07T19:39:20.577Z,98442.38
2023-03-07T19:42:26.344Z,98436.59
2023-03-07T19:45:31.760Z,98433.09
2023-03-07T19:48:40.826Z,98428.09
2023-03-07T19:51:46.680Z,98433.13
2023-03-07T19:54:54.445Z,98425.66
2023-03-07T19:58:00.012Z,98425.44
2023-03-07T20:01:09.947Z,98410.47
2023-03-07T20:04:17.528Z,98408.81
2023-03-07T20:07:23.139Z,98407.13
2023-03-07T20:10:28.676Z,98403.84
2023-03-07T20:13:34.408Z,98403.09
2023-03-07T20:16:40.380Z,98393.91
2023-03-07T20:19:47.759Z,98395.59
2023-03-07T20:22:56.439Z,98390.81
2023-03-07T20:26:06.312Z,98380.81
2023-03-07T20:29:13.289Z,98393.38
2023-03-07T20:32:18.975Z,98376.56
2023-03-07T20:35:26.490Z,98375.53
2023-03-07T20:38:32.563Z,98370.41
2023-03-07T20:41:38.316Z,98360.44
2023-03-07T20:44:43.807Z,98364.56
2023-03-07T20:47:49.561Z,98359.31
2023-03-07T20:50:58.490Z,98346.69
2023-03-07T20:54:04.803Z,98346.91
2023-03-07T20:57:11.832Z,98341.13
2023-03-07T21:00:17.887Z,98345.31
2023-03-07T21:03:23.547Z,98336.00
2023-03-07T21:06:30.174Z,98338.53
2023-03-07T21:09:35.330Z,98330.94
2023-03-07T21:12:40.691Z,98335.38
2023-03-07T21:15:54.640Z,98324.50
2023-03-07T21:19:03.550Z,98324.47
2023-03-07T21:22:10.242Z,98317.81
2023-03-07T21:25:15.732Z,98316.09
2023-03-07T21:28:20.713Z,98316.81
2023-03-07T21:31:27.349Z,98322.75
2023-03-07T21:34:32.727Z,98313.78
2023-03-07T21:37:39.424Z,98310.50
2023-03-07T21:40:44.402Z,98310.97
2023-03-07T21:43:50.358Z,98311.97
2023-03-07T21:46:56.138Z,98304.47
2023-03-07T21:50:01.659Z,98307.00
2023-03-07T21:53:09.563Z,98292.06
2023-03-07T21:56:18.662Z,98285.47
2023-03-07T21:59:23.624Z,98278.63
2023-03-07T22:02:28.869Z,98281.81
2023-03-07T22:05:34.084Z,98270.91
2023-03-07T22:08:41.107Z,98262.47
2023-03-07T22:11:45.949Z,98262.47
2023-03-07T22:14:51.314Z,98254.97
2023-03-07T22:17:56.509Z,98254.75
2023-03-07T22:21:10.135Z,98252.16
2023-03-07T22:24:16.799Z,98257.13
2023-03-07T22:27:22.193Z,98244.50
2023-03-07T22:30:27.329Z,98237.81
2023-03-07T22:33:32.944Z,98236.13
2023-03-07T22:36:38.019Z,98228.44
2023-03-07T22:39:44.607Z,98220.84
2023-03-07T22:42:51.475Z,98221.75
2023-03-07T22:45:56.898Z,98219.13
2023-03-07T22:49:01.783Z,98225.84
2023-03-07T22:52:07.203Z,98226.66
2023-03-07T22:55:15.021Z,98223.34
2023-03-07T22:58:20.375Z,98209.91
2023-03-07T23:01:28.216Z,98220.84
2023-03-07T23:04:33.300Z,98219.25
2023-03-07T23:07:40.014Z,98212.56
2023-03-07T23:10:47.036Z,98224.31
2023-03-07T23:13:51.997Z,98216.78
2023-03-07T23:16:57.256Z,98219.25
2023-03-07T23:20:02.578Z,98222.75
2023-03-07T23:23:07.819Z,98216.06
2023-03-07T23:26:18.265Z,98214.28
2023-03-07T23:29:23.414Z,98211.75
2023-03-07T23:32:28.828Z,98201.59
2023-03-07T23:35:34.789Z,98205.13
2023-03-07T23:38:39.977Z,98210.09
2023-03-07T23:41:46.476Z,98206.66
2023-03-07T23:44:51.929Z,98205.94
2023-03-07T23:47:56.703Z,98203.59
2023-03-07T23:51:01.924Z,98206.94
2023-03-07T23:54:06.808Z,98197.72
2023-03-07T23:57:13.602Z,98199.50
